Aviation Digital Data Service (ADDS)

Output produced by TAFs form (0408 UTC 24 May 2017)
found at http://aviationweather.gov/adds/tafs/
 
KTCC 232331Z 2400/2424 04010KT P6SM SCT060 SCT090 
     FM240400 24006KT P6SM FEW090 
     FM241500 24013KT P6SM SKC